Etusivu
METAR-TAF:

METAR-TAF

Lentoasemat :

Frédéric Chopinin kansainvälinen lentoasema

Varsova, Puola

Leveyspiiri: 52-10N, Pituuspiiri: 020-58E, korkeus merenpinnasta: 106 m

Tämänhetkinen sää

Tämä raportti tehtiin 20 minuuttia sitten, kello 11.30 UTC
Tuuli 10 kn pohjoisen/luoteesta, vaihdellen luoteen ja pohjoisen välillä
Lämpötila 28°C
Kosteus 40%
Ilmanpaine 1011 hPa
Näkyvyys 10 km tai enemmän
ei pilviä alle 1500 m:ssä eikä cumulonimbus-pilviä

METAR: EPWA 231130Z 34010KT 310V010 CAVOK 28/13 Q1011 NOSIG

Aika: 13:50 (11:50 UTC)

Sääennuste

Tämä raportti tehtiin 20 minuuttia sitten, kello 11.30 UTC
Ennuste voimassa 23. päivästä klo 12 UTC - 24. päivään klo 12 UTC
Tuuli 12 kn pohjoisen/luoteesta
Näkyvyys 10 km tai enemmän
ei pilviä alle 1500 m:ssä eikä cumulonimbus-pilviä

TAF: EPWA 231130Z 2312/2412 34012KT CAVOK

Säähavainnot ja -ennusteet yli 4000 lentoasemalta (METAR- ja TAF-raportit).

Käytössä olevat sääasemat on merkitty karttaan keltaisilla ja punaisilla pisteillä.

Aseta hiiri pisteen päälle nähdäksesi sääaseman nimen.

Klikkaa sitten nähdäksesi säähavainnot ja -ennusteet.

Kartan vaihtaminen: klikkaa mustalla rastilla varustettuja vihreitä pisteitä, niin voit zoomata sisään; viivalla varustettua vihreää pistettä, niin voit zoomata ulos tai vihreitä nuolia, niin pääset viereisille kartoille.


METAR-TAF: